Time;durP1;ratioP1;P1;durP2;ratioP2;P2;SDS_P1;SDS_P2;PMS_P1;PMS_P2;Temp;Humidity;BMP_temperature;BMP_pressure;BME280_temperature;BME280_humidity;BME280_pressure;Samples;Min_cycle;Max_cycle;Signal;HPM_P1;HPM_P2
2023/09/26 00:00:21;;;;;;;7.03;1.95;;;;;;;20.62;71.87;100322.44;4454387;32;32883;-79
2023/09/26 00:02:53;;;;;;;2.65;1.25;;;;;;;20.40;73.09;100327.75;4462787;32;34775;-81
2023/09/26 00:05:23;;;;;;;3.05;1.30;;;;;;;20.41;73.01;100325.03;4459882;32;33805;-80
2023/09/26 00:07:54;;;;;;;4.47;1.40;;;;;;;20.41;72.92;100327.66;4459360;32;32974;-79
2023/09/26 00:10:24;;;;;;;4.45;2.28;;;;;;;20.43;72.42;100325.84;4451376;32;32554;-81
2023/09/26 00:12:54;;;;;;;2.42;1.37;;;;;;;20.52;72.35;100329.84;4457024;32;33042;-79
2023/09/26 00:15:22;;;;;;;1.87;1.25;;;;;;;20.17;73.67;100328.75;4451325;32;34766;-79
2023/09/26 00:17:51;;;;;;;5.72;1.48;;;;;;;20.21;73.72;100327.69;4458813;32;34596;-80
2023/09/26 00:20:23;;;;;;;5.85;1.30;;;;;;;19.86;75.30;100330.06;4460035;32;33670;-79
2023/09/26 00:22:52;;;;;;;3.60;1.23;;;;;;;20.31;73.55;100322.88;4456445;32;34051;-79
2023/09/26 00:25:22;;;;;;;3.83;1.40;;;;;;;20.17;74.00;100326.09;4466562;32;33778;-79
2023/09/26 00:27:52;;;;;;;2.58;1.23;;;;;;;20.31;73.60;100315.81;4450137;32;33946;-80
2023/09/26 00:30:21;;;;;;;;;;;;;;;20.23;74.02;100325.84;4450824;32;33491;-80
2023/09/26 00:32:50;;;;;;;4.68;1.85;;;;;;;20.12;73.97;100322.81;4453682;32;34192;-79
2023/09/26 00:35:19;;;;;;;2.97;1.50;;;;;;;20.42;72.54;100320.66;4461990;32;33576;-80
2023/09/26 00:37:51;;;;;;;3.55;1.75;;;;;;;20.37;72.59;100319.97;4458241;32;33633;-80
2023/09/26 00:40:21;;;;;;;2.78;1.37;;;;;;;20.20;73.63;100318.09;4453348;32;33256;-78
2023/09/26 00:42:52;;;;;;;2.78;1.58;;;;;;;19.99;74.13;100318.06;4450853;32;33045;-79
2023/09/26 00:45:21;;;;;;;3.97;1.30;;;;;;;20.13;73.62;100322.75;4460645;32;34679;-79
2023/09/26 00:47:51;;;;;;;3.10;1.55;;;;;;;20.16;73.37;100311.22;4451752;32;32151;-81
2023/09/26 00:50:22;;;;;;;2.15;1.20;;;;;;;20.28;72.91;100317.75;4460439;32;33894;-80
2023/09/26 00:52:51;;;;;;;3.62;1.50;;;;;;;20.35;72.26;100312.16;4454755;32;34472;-80
2023/09/26 00:55:22;;;;;;;2.87;1.50;;;;;;;20.24;72.72;100314.38;4453568;32;33773;-80
2023/09/26 00:57:54;;;;;;;2.33;1.08;;;;;;;20.07;73.37;100316.88;4466267;32;33473;-79
2023/09/26 01:00:24;;;;;;;6.90;1.58;;;;;;;20.24;72.71;100315.22;4459627;32;33384;-80
2023/09/26 01:02:53;;;;;;;3.70;1.90;;;;;;;20.31;72.56;100315.81;4460194;32;34337;-80
2023/09/26 01:05:22;;;;;;;3.12;1.45;;;;;;;20.16;73.03;100308.59;4460227;32;34466;-79
2023/09/26 01:07:53;;;;;;;3.65;1.48;;;;;;;20.18;73.22;100309.41;4453154;32;34772;-80
2023/09/26 01:10:22;;;;;;;4.28;1.50;;;;;;;20.33;72.34;100311.34;4457824;32;34072;-79
2023/09/26 01:12:52;;;;;;;3.22;1.45;;;;;;;20.03;73.92;100306.50;4453614;32;33348;-79
2023/09/26 01:15:31;;;;;;;1.70;1.15;;;;;;;19.98;73.48;100308.47;4451485;32;34152;-79
2023/09/26 01:18:00;;;;;;;3.40;1.80;;;;;;;19.92;73.99;100319.25;4459930;32;34388;-79
2023/09/26 01:20:29;;;;;;;4.03;2.22;;;;;;;20.01;73.13;100315.37;4466026;32;33950;-78
2023/09/26 01:22:58;;;;;;;2.55;1.40;;;;;;;20.08;73.07;100314.19;4459495;32;34681;-80
2023/09/26 01:25:28;;;;;;;2.87;1.27;;;;;;;19.85;73.98;100311.66;4452534;32;34128;-78
2023/09/26 01:28:01;;;;;;;3.42;1.37;;;;;;;20.14;72.46;100313.91;4459324;32;32914;-80
2023/09/26 01:30:30;;;;;;;2.50;1.30;;;;;;;19.96;73.28;100309.44;4457205;32;33406;-79
2023/09/26 01:32:59;;;;;;;2.55;1.58;;;;;;;19.97;72.57;100312.00;4463042;32;34247;-79
2023/09/26 01:35:28;;;;;;;2.53;1.80;;;;;;;19.95;72.57;100302.47;4458273;32;33667;-79
2023/09/26 01:37:57;;;;;;;2.12;1.27;;;;;;;19.81;73.02;100310.94;4459798;32;33129;-80
2023/09/26 01:40:26;;;;;;;3.60;1.52;;;;;;;19.84;73.10;100305.56;4450595;32;33910;-80
2023/09/26 01:42:56;;;;;;;2.95;1.48;;;;;;;19.92;72.78;100305.22;4456186;32;33773;-81
2023/09/26 01:45:24;;;;;;;2.92;1.40;;;;;;;19.83;73.00;100317.00;4460211;32;34497;-81
2023/09/26 01:47:53;;;;;;;3.85;1.50;;;;;;;19.79;73.05;100311.00;4458857;32;34695;-80
2023/09/26 01:50:23;;;;;;;2.65;1.40;;;;;;;19.71;73.13;100309.59;4461159;32;33440;-79
2023/09/26 01:52:52;;;;;;;2.60;1.70;;;;;;;19.78;72.83;100305.78;4460465;32;34132;-79
2023/09/26 01:55:22;;;;;;;2.72;1.50;;;;;;;19.78;72.84;100306.66;4467444;32;33935;-78
2023/09/26 01:57:51;;;;;;;3.50;1.52;;;;;;;19.71;73.20;100314.87;4461100;32;34133;-80
2023/09/26 02:00:22;;;;;;;4.25;1.50;;;;;;;19.61;73.31;100312.56;4453022;32;33965;-79
2023/09/26 02:02:52;;;;;;;3.45;1.60;;;;;;;19.71;73.00;100309.59;4459160;32;32994;-81
2023/09/26 02:05:21;;;;;;;5.40;1.50;;;;;;;19.75;72.80;100312.03;4466462;32;33410;-81
2023/09/26 02:07:51;;;;;;;4.57;1.95;;;;;;;19.68;73.08;100309.72;4460180;32;33631;-80
2023/09/26 02:10:22;;;;;;;4.50;1.95;;;;;;;19.69;73.24;100303.53;4461755;32;32948;-79
2023/09/26 02:12:52;;;;;;;4.20;2.15;;;;;;;19.68;72.87;100310.59;4461156;32;33378;-79
2023/09/26 02:15:23;;;;;;;3.72;1.95;;;;;;;19.67;73.25;100308.84;4448794;32;35148;-81
2023/09/26 02:17:52;;;;;;;2.12;1.37;;;;;;;19.66;73.06;100311.53;4464876;32;33550;-81
2023/09/26 02:20:21;;;;;;;2.75;1.42;;;;;;;19.61;73.28;100309.09;4459766;32;32852;-79
2023/09/26 02:22:51;;;;;;;4.32;1.55;;;;;;;19.64;73.14;100306.31;4457597;32;33962;-79
2023/09/26 02:25:21;;;;;;;4.25;2.00;;;;;;;19.49;74.69;100307.81;4460765;32;33133;-81
2023/09/26 02:27:50;;;;;;;2.80;1.75;;;;;;;19.58;74.51;100307.44;4464327;32;33848;-78
2023/09/26 02:30:21;;;;;;;2.87;1.50;;;;;;;19.69;73.95;100306.16;4458602;32;33448;-79
2023/09/26 02:32:51;;;;;;;3.75;1.90;;;;;;;19.80;73.52;100307.44;4459372;32;34329;-80
2023/09/26 02:35:21;;;;;;;4.03;1.98;;;;;;;19.82;73.42;100310.03;4460324;32;33592;-80
2023/09/26 02:37:49;;;;;;;3.80;1.92;;;;;;;19.75;74.17;100309.41;4461020;32;35348;-79
2023/09/26 02:40:18;;;;;;;2.90;1.52;;;;;;;19.69;74.55;100317.56;4464622;32;33035;-80
2023/09/26 02:42:50;;;;;;;3.78;2.08;;;;;;;19.75;74.48;100317.31;4448599;32;34265;-79
2023/09/26 02:45:18;;;;;;;;;;;;;;;19.89;74.44;100314.13;4461155;32;34490;-81
2023/09/26 02:47:47;;;;;;;4.25;1.90;;;;;;;19.77;74.98;100319.88;4464425;32;33756;-79
2023/09/26 02:50:17;;;;;;;4.03;2.03;;;;;;;19.91;74.23;100314.03;4454706;32;34240;-79
2023/09/26 02:52:46;;;;;;;4.90;1.83;;;;;;;19.86;74.96;100323.91;4446239;32;33374;-81
2023/09/26 02:55:15;;;;;;;4.90;2.62;;;;;;;19.99;74.13;100320.69;4446032;32;34416;-78
2023/09/26 02:57:46;;;;;;;5.30;2.58;;;;;;;19.88;74.75;100322.06;4448940;32;33692;-80
2023/09/26 03:00:17;;;;;;;5.95;2.75;;;;;;;19.94;74.58;100321.81;4467139;32;33507;-78
2023/09/26 03:02:47;;;;;;;3.85;2.17;;;;;;;19.95;74.67;100315.63;4452770;32;33008;-81
2023/09/26 03:05:19;;;;;;;5.10;2.40;;;;;;;19.90;75.23;100310.53;4445885;32;33219;-80
2023/09/26 03:07:50;;;;;;;6.82;2.00;;;;;;;19.93;75.10;100309.56;4446034;32;33405;-80
2023/09/26 03:10:19;;;;;;;4.40;1.73;;;;;;;19.99;74.92;100319.84;4445579;32;34138;-78
2023/09/26 03:12:48;;;;;;;5.05;2.87;;;;;;;20.19;73.71;100311.94;4451748;32;33602;-79
2023/09/26 03:15:17;;;;;;;3.42;1.83;;;;;;;20.32;72.96;100317.56;4454648;32;34756;-79
2023/09/26 03:17:47;;;;;;;4.32;2.20;;;;;;;19.98;74.79;100312.84;4437780;32;33357;-79
2023/09/26 03:20:16;;;;;;;4.82;2.72;;;;;;;19.80;76.12;100314.50;4460537;32;33968;-80
2023/09/26 03:22:47;;;;;;;5.80;2.10;;;;;;;20.08;74.47;100308.94;4465011;32;34010;-81
2023/09/26 03:25:16;;;;;;;4.05;1.75;;;;;;;20.11;74.37;100314.06;4465428;32;35664;-81
2023/09/26 03:27:47;;;;;;;4.50;2.47;;;;;;;20.08;74.53;100314.19;4459651;32;33901;-80
2023/09/26 03:30:17;;;;;;;6.00;2.58;;;;;;;20.32;73.06;100316.69;4458481;32;32996;-80
2023/09/26 03:32:45;;;;;;;6.82;2.37;;;;;;;20.36;72.62;100320.91;4446420;32;33954;-79
2023/09/26 03:35:15;;;;;;;3.42;1.95;;;;;;;20.18;73.22;100319.94;4456481;32;33756;-79
2023/09/26 03:37:43;;;;;;;7.00;2.00;;;;;;;20.39;72.48;100311.09;4457251;32;33980;-78
2023/09/26 03:40:14;;;;;;;3.65;1.73;;;;;;;20.23;73.24;100313.53;4461056;32;32802;-78
2023/09/26 03:42:45;;;;;;;5.90;2.80;;;;;;;20.19;73.73;100317.22;4456766;32;33983;-81
2023/09/26 03:45:14;;;;;;;2.85;2.03;;;;;;;20.30;72.94;100318.56;4453483;32;34709;-78
2023/09/26 03:47:43;;;;;;;4.62;2.28;;;;;;;20.22;73.62;100322.37;4461154;32;33807;-80
2023/09/26 03:50:12;;;;;;;4.55;2.30;;;;;;;20.03;74.34;100324.94;4449182;32;33414;-81
2023/09/26 03:52:41;;;;;;;3.60;2.08;;;;;;;20.27;73.33;100322.16;4445973;32;34446;-79
2023/09/26 03:55:09;;;;;;;5.45;2.90;;;;;;;20.37;72.47;100323.47;4450514;32;33735;-80
2023/09/26 03:57:40;;;;;;;5.43;2.50;;;;;;;20.30;72.67;100319.41;4455896;32;33468;-80
2023/09/26 04:00:18;;;;;;;6.53;2.08;;;;;;;20.30;72.86;100314.13;4458388;32;33181;-79
2023/09/26 04:02:47;;;;;;;3.37;1.83;;;;;;;20.24;72.99;100320.50;4459300;32;34210;-80
2023/09/26 04:05:16;;;;;;;4.10;2.25;;;;;;;20.01;74.54;100315.37;4458586;32;33859;-78
2023/09/26 04:07:45;;;;;;;18.65;2.45;;;;;;;20.19;73.04;100319.84;4465516;32;33719;-79
2023/09/26 04:10:14;;;;;;;5.25;2.70;;;;;;;19.83;74.51;100315.19;4449853;32;33413;-79
2023/09/26 04:12:44;;;;;;;3.58;2.20;;;;;;;20.17;73.26;100318.19;4449731;32;33542;-79
2023/09/26 04:15:13;;;;;;;3.70;2.03;;;;;;;20.16;73.30;100317.34;4458165;32;33138;-80
2023/09/26 04:17:42;;;;;;;4.55;2.20;;;;;;;20.19;72.85;100319.00;4457900;32;34471;-80
2023/09/26 04:20:12;;;;;;;3.95;1.80;;;;;;;20.31;72.21;100318.47;4455199;32;33485;-80
2023/09/26 04:22:58;;;;;;;6.18;2.83;;;;;;;20.23;72.50;100325.84;4452098;32;33881;-79
2023/09/26 04:25:29;;;;;;;4.20;2.15;;;;;;;20.03;73.60;100324.94;4459761;32;34377;-81
2023/09/26 04:27:59;;;;;;;4.07;2.72;;;;;;;20.17;73.14;100318.19;4459724;32;34092;-79
2023/09/26 04:30:28;;;;;;;7.28;2.08;;;;;;;20.44;71.46;100319.66;4446835;32;33239;-79
2023/09/26 04:32:57;;;;;;;5.90;2.45;;;;;;;20.33;71.68;100324.53;4454412;32;33672;-78
2023/09/26 04:35:30;;;;;;;6.78;1.98;;;;;;;20.56;70.93;100333.22;4456807;32;33729;-79
2023/09/26 04:37:59;;;;;;;9.10;2.65;;;;;;;20.42;71.27;100333.81;4457892;32;34008;-79
2023/09/26 04:40:28;;;;;;;8.70;2.60;;;;;;;20.23;72.18;100333.75;4447113;32;32553;-79
2023/09/26 04:43:01;;;;;;;6.12;2.30;;;;;;;20.22;72.29;100339.94;4458774;32;35318;-79
2023/09/26 04:45:31;;;;;;;3.33;1.65;;;;;;;20.07;73.14;100335.31;4451943;32;34178;-79
2023/09/26 04:48:00;;;;;;;3.37;1.92;;;;;;;20.41;71.39;100342.63;4453716;32;34532;-80
2023/09/26 04:50:29;;;;;;;5.15;2.70;;;;;;;20.15;72.25;100346.38;4457638;32;32940;-80
2023/09/26 04:52:59;;;;;;;4.47;2.25;;;;;;;20.37;71.45;100344.56;4462252;32;34023;-79
2023/09/26 04:55:28;;;;;;;3.75;2.20;;;;;;;20.20;72.38;100350.56;4465970;32;33745;-78
2023/09/26 04:57:57;;;;;;;4.87;2.50;;;;;;;20.21;72.30;100351.41;4451540;32;33979;-80
2023/09/26 05:00:28;;;;;;;3.62;2.10;;;;;;;20.28;71.65;100344.94;4457218;32;34281;-80
2023/09/26 05:02:57;;;;;;;3.58;1.80;;;;;;;20.33;71.54;100344.75;4457731;32;32982;-78
2023/09/26 05:05:27;;;;;;;7.25;2.20;;;;;;;20.46;70.93;100349.44;4447433;32;32314;-81
2023/09/26 05:07:56;;;;;;;3.78;2.10;;;;;;;20.59;70.35;100351.56;4455820;32;33592;-80
2023/09/26 05:10:25;;;;;;;4.90;2.50;;;;;;;20.65;69.86;100351.28;4459616;32;33175;-80
2023/09/26 05:12:54;;;;;;;4.78;2.40;;;;;;;20.30;71.35;100351.03;4455609;32;34417;-80
2023/09/26 05:15:23;;;;;;;9.40;2.30;;;;;;;20.31;71.39;100351.88;4456833;32;33602;-79
2023/09/26 05:17:53;;;;;;;4.75;2.25;;;;;;;20.24;71.84;100346.00;4459210;32;33878;-79
2023/09/26 05:20:24;;;;;;;3.20;1.92;;;;;;;20.39;71.11;100347.12;4456639;32;32641;-79
2023/09/26 05:22:55;;;;;;;4.07;2.00;;;;;;;20.30;71.39;100347.53;4455801;32;34542;-78
2023/09/26 05:25:24;;;;;;;4.43;2.40;;;;;;;20.35;71.39;100346.41;4456823;32;32547;-78
2023/09/26 05:27:53;;;;;;;4.55;2.17;;;;;;;20.13;72.42;100353.53;4463880;32;34485;-79
2023/09/26 05:30:22;;;;;;;3.28;1.62;;;;;;;20.46;70.96;100353.81;4454811;32;33063;-80
2023/09/26 05:32:51;;;;;;;7.07;3.47;;;;;;;20.23;72.01;100347.78;4449493;32;34639;-78
2023/09/26 05:35:23;;;;;;;4.15;2.25;;;;;;;20.50;71.05;100347.50;4459141;32;34079;-78
2023/09/26 05:37:52;;;;;;;3.15;2.20;;;;;;;20.51;71.11;100353.62;4455994;32;34356;-79
2023/09/26 05:40:21;;;;;;;8.73;2.72;;;;;;;20.36;71.72;100353.38;4458526;32;33066;-81
2023/09/26 05:42:50;;;;;;;5.43;2.20;;;;;;;20.50;71.15;100346.66;4457365;32;34440;-80
2023/09/26 05:45:19;;;;;;;3.08;2.00;;;;;;;20.61;70.41;100350.56;4451920;32;34400;-79
2023/09/26 05:47:48;;;;;;;6.18;2.75;;;;;;;20.79;69.40;100359.44;4456762;32;33989;-80
2023/09/26 05:50:17;;;;;;;3.92;1.98;;;;;;;20.65;70.16;100353.91;4466027;32;33260;-79
2023/09/26 05:52:47;;;;;;;4.28;2.40;;;;;;;20.70;70.12;100359.00;4455146;32;34542;-80
2023/09/26 05:55:16;;;;;;;6.30;2.97;;;;;;;20.89;69.21;100359.88;4447099;32;34579;-79
2023/09/26 05:57:45;;;;;;;4.62;2.03;;;;;;;20.61;70.18;100354.97;4448415;32;33908;-79
2023/09/26 06:00:14;;;;;;;4.72;2.45;;;;;;;20.81;69.14;100354.09;4454871;32;33062;-79
2023/09/26 06:02:44;;;;;;;3.87;1.90;;;;;;;20.24;71.48;100361.81;4445608;32;33757;-80
2023/09/26 06:05:12;;;;;;;5.15;2.42;;;;;;;20.92;68.80;100356.25;4445692;32;33658;-78
2023/09/26 06:07:47;;;;;;;3.83;2.37;;;;;;;20.52;70.15;100356.22;4445636;32;34597;-80
2023/09/26 06:10:16;;;;;;;4.68;2.80;;;;;;;20.48;70.34;100361.69;4444319;32;34178;-80
2023/09/26 06:12:44;;;;;;;4.28;2.15;;;;;;;20.57;70.20;100358.69;4450439;32;34210;-78
2023/09/26 06:15:13;;;;;;;4.37;2.30;;;;;;;21.02;68.03;100350.50;4445075;32;34836;-78
2023/09/26 06:17:42;;;;;;;5.20;2.85;;;;;;;21.08;67.57;100349.34;4444965;32;34102;-79
2023/09/26 06:20:12;;;;;;;4.60;2.08;;;;;;;21.05;68.20;100350.34;4445939;32;33378;-80
2023/09/26 06:22:41;;;;;;;3.80;1.98;;;;;;;21.13;67.73;100355.25;4458619;32;33512;-79
2023/09/26 06:25:11;;;;;;;6.53;2.50;;;;;;;21.10;67.15;100353.62;4449832;32;33739;-78
2023/09/26 06:27:40;;;;;;;4.40;2.33;;;;;;;21.01;67.65;100351.41;4451608;32;33197;-79
2023/09/26 06:30:11;;;;;;;4.15;2.10;;;;;;;20.99;67.85;100344.47;4446404;32;33185;-79
2023/09/26 06:32:40;;;;;;;4.68;1.70;;;;;;;20.91;68.09;100349.28;4448059;32;33524;-78
2023/09/26 06:35:10;;;;;;;6.25;2.40;;;;;;;21.13;67.08;100341.22;4455974;32;33741;-79
2023/09/26 06:37:39;;;;;;;4.82;2.50;;;;;;;21.23;66.67;100351.25;4453967;32;34663;-79
2023/09/26 06:40:09;;;;;;;3.90;2.03;;;;;;;21.36;66.27;100353.31;4452942;32;33179;-78
2023/09/26 06:42:39;;;;;;;6.85;2.45;;;;;;;21.42;65.29;100345.16;4452408;32;33787;-78
2023/09/26 06:45:09;;;;;;;5.53;2.90;;;;;;;21.22;66.13;100351.34;4431478;32;33981;-79
2023/09/26 06:47:38;;;;;;;7.30;1.83;;;;;;;21.17;66.31;100351.56;4427747;32;34510;-80
2023/09/26 06:50:10;;;;;;;5.45;3.05;;;;;;;21.35;65.56;100354.25;4422472;32;33957;-79
2023/09/26 06:52:40;;;;;;;3.40;1.77;;;;;;;21.27;66.32;100352.84;4419237;32;33403;-80
2023/09/26 06:55:10;;;;;;;4.12;2.42;;;;;;;21.24;66.00;100358.25;4415270;32;34681;-77
2023/09/26 06:57:44;;;;;;;3.72;2.15;;;;;;;21.08;66.19;100351.97;4420700;32;33252;-78
2023/09/26 07:00:16;;;;;;;3.67;2.37;;;;;;;21.43;65.26;100353.00;4415115;32;33343;-81
2023/09/26 07:02:46;;;;;;;6.62;3.30;;;;;;;21.49;64.66;100352.69;4415618;32;33903;-79
2023/09/26 07:05:16;;;;;;;4.03;2.20;;;;;;;21.35;65.17;100357.75;4415284;32;33631;-79
2023/09/26 07:07:45;;;;;;;4.37;2.33;;;;;;;21.26;65.30;100358.19;4420234;32;32930;-80
2023/09/26 07:10:14;;;;;;;3.70;2.28;;;;;;;21.64;64.70;100356.38;4413692;32;33108;-78
2023/09/26 07:12:44;;;;;;;4.03;2.10;;;;;;;21.71;63.81;100360.44;4412498;32;33613;-80
2023/09/26 07:15:14;;;;;;;4.25;2.25;;;;;;;21.75;63.97;100361.16;4437318;27;33786;-79
2023/09/26 07:17:43;;;;;;;4.32;1.95;;;;;;;21.82;63.47;100359.94;4429908;32;33454;-79
2023/09/26 07:20:15;;;;;;;4.87;1.67;;;;;;;21.78;63.30;100360.16;4435920;32;33866;-80
2023/09/26 07:22:44;;;;;;;4.50;2.42;;;;;;;21.86;63.54;100357.97;4430319;32;33738;-79
2023/09/26 07:25:14;;;;;;;4.97;2.47;;;;;;;21.46;64.69;100359.94;4430481;32;33214;-79
2023/09/26 07:27:44;;;;;;;4.60;1.95;;;;;;;21.59;64.38;100358.41;4430343;32;34420;-78
2023/09/26 07:30:16;;;;;;;3.62;2.15;;;;;;;21.33;64.97;100361.38;4436156;32;34838;-80
2023/09/26 07:32:44;;;;;;;5.47;2.40;;;;;;;21.95;63.01;100360.16;4430272;32;33977;-80
2023/09/26 07:35:13;;;;;;;3.33;2.10;;;;;;;22.02;63.63;100369.50;4430739;32;33510;-79
2023/09/26 07:37:42;;;;;;;5.32;2.17;;;;;;;21.90;64.05;100375.41;4430299;32;33947;-79
2023/09/26 07:40:11;;;;;;;4.90;2.12;;;;;;;21.99;63.58;100367.03;4430384;32;34123;-80
2023/09/26 07:42:40;;;;;;;4.18;2.45;;;;;;;22.08;63.27;100382.38;4435853;32;33463;-78
2023/09/26 07:45:16;;;;;;;5.28;3.08;;;;;;;21.99;63.89;100384.62;4429942;32;33792;-80
2023/09/26 07:47:45;;;;;;;6.65;2.70;;;;;;;22.28;62.54;100385.87;4429935;32;34257;-79
2023/09/26 07:50:14;;;;;;;4.25;2.65;;;;;;;22.25;62.94;100386.88;4430262;32;33279;-80
2023/09/26 07:52:43;;;;;;;7.12;2.92;;;;;;;22.14;63.42;100399.75;4435614;32;33488;-80
2023/09/26 07:55:12;;;;;;;4.60;2.40;;;;;;;22.05;64.18;100385.19;4430236;32;34054;-79
2023/09/26 07:57:41;;;;;;;5.00;2.33;;;;;;;22.39;63.23;100396.75;4430353;32;34813;-79
2023/09/26 08:00:13;;;;;;;5.85;2.47;;;;;;;22.33;63.23;100391.78;4430282;32;33674;-78
2023/09/26 08:02:42;;;;;;;5.40;2.05;;;;;;;22.54;62.57;100395.09;4414767;32;34342;-79
2023/09/26 08:05:11;;;;;;;4.72;2.55;;;;;;;22.68;62.63;100399.69;4420405;32;34164;-80
2023/09/26 08:07:42;;;;;;;7.05;2.37;;;;;;;22.23;64.14;100401.09;4414702;32;33451;-78
2023/09/26 08:10:12;;;;;;;5.07;2.78;;;;;;;22.52;63.40;100400.50;4420881;32;33474;-79
2023/09/26 08:12:41;;;;;;;3.90;2.35;;;;;;;22.54;62.34;100403.91;4424893;32;33695;-81
2023/09/26 08:15:13;;;;;;;6.72;2.28;;;;;;;22.67;62.37;100397.97;4435436;32;35498;-81
2023/09/26 08:17:42;;;;;;;4.37;2.30;;;;;;;22.85;62.33;100398.78;4414729;32;33707;-78
2023/09/26 08:20:12;;;;;;;5.15;2.40;;;;;;;22.47;63.11;100402.50;4427646;32;32881;-80
2023/09/26 08:22:43;;;;;;;6.87;3.05;;;;;;;22.26;63.87;100396.53;4429560;32;33878;-79
2023/09/26 08:25:12;;;;;;;4.93;2.47;;;;;;;22.55;63.13;100392.38;4426804;32;34579;-81
2023/09/26 08:27:41;;;;;;;5.30;2.53;;;;;;;22.50;63.48;100393.56;4434835;32;33825;-78
2023/09/26 08:30:12;;;;;;;4.22;2.12;;;;;;;22.74;62.65;100392.28;4427663;32;33751;-80
2023/09/26 08:32:42;;;;;;;3.58;2.12;;;;;;;22.74;62.62;100399.37;4429281;32;34416;-78
2023/09/26 08:35:11;;;;;;;4.72;2.40;;;;;;;22.43;63.88;100400.09;4429324;32;34004;-79
2023/09/26 08:37:42;;;;;;;4.43;2.33;;;;;;;23.06;61.62;100395.03;4434887;32;34208;-79
2023/09/26 08:40:12;;;;;;;5.75;2.40;;;;;;;23.07;60.85;100395.88;4422700;32;33463;-79
2023/09/26 08:42:42;;;;;;;7.95;3.22;;;;;;;23.05;61.26;100403.06;4426484;32;33101;-80
2023/09/26 08:45:12;;;;;;;7.62;2.45;;;;;;;23.34;60.26;100390.88;4426756;32;33516;-79
2023/09/26 08:47:44;;;;;;;3.17;1.83;;;;;;;23.46;59.67;100392.00;4425718;32;34263;-79
2023/09/26 08:50:13;;;;;;;4.25;2.55;;;;;;;23.61;59.97;100386.72;4434120;32;33022;-80
2023/09/26 08:52:42;;;;;;;3.45;2.00;;;;;;;23.77;58.87;100389.34;4428611;32;33912;-79
2023/09/26 08:55:11;;;;;;;4.32;2.65;;;;;;;23.62;59.10;100382.25;4423704;32;34790;-79
2023/09/26 08:57:41;;;;;;;5.60;2.60;;;;;;;23.67;58.76;100380.19;4429101;32;34315;-79
2023/09/26 09:00:13;;;;;;;6.03;2.92;;;;;;;23.90;58.25;100380.75;4434576;32;33406;-79
2023/09/26 09:02:41;;;;;;;4.22;2.05;;;;;;;23.76;58.22;100384.16;4427573;32;34440;-79
2023/09/26 09:05:11;;;;;;;4.68;2.50;;;;;;;23.55;58.28;100384.38;4428847;32;34581;-79
2023/09/26 09:07:40;;;;;;;10.07;2.80;;;;;;;23.95;57.21;100383.97;4428396;32;33814;-79
2023/09/26 09:10:11;;;;;;;5.22;2.47;;;;;;;23.97;56.43;100374.09;4428763;32;33207;-79
2023/09/26 09:12:42;;;;;;;4.25;2.60;;;;;;;24.27;56.36;100385.56;4434474;32;33989;-80
2023/09/26 09:15:22;;;;;;;4.07;2.17;;;;;;;24.30;56.14;100384.53;4428606;32;35018;-81
2023/09/26 09:17:53;;;;;;;4.00;2.50;;;;;;;24.16;56.52;100381.84;4427802;32;33700;-79
2023/09/26 09:20:30;;;;;;;5.30;2.42;;;;;;;24.22;56.16;100381.50;4428226;32;32656;-79
2023/09/26 09:23:00;;;;;;;3.72;1.83;;;;;;;24.56;55.56;100380.38;4428846;32;33318;-79
2023/09/26 09:25:34;;;;;;;6.97;3.50;;;;;;;24.42;56.14;100386.47;4434071;32;33785;-79
2023/09/26 09:28:06;;;;;;;8.38;2.15;;;;;;;24.39;55.03;100377.84;4427211;32;34057;-79
2023/09/26 09:30:40;;;;;;;4.15;2.25;;;;;;;24.39;55.10;100388.47;4428205;32;33474;-80
2023/09/26 09:33:09;;;;;;;4.57;2.12;;;;;;;24.47;55.22;100378.25;4428222;32;33767;-81
2023/09/26 09:35:38;;;;;;;4.37;3.25;;;;;;;24.60;55.09;100379.25;4434077;32;33650;-80
2023/09/26 09:38:12;;;;;;;8.50;3.22;;;;;;;24.37;54.32;100377.94;4430365;32;33386;-79
2023/09/26 09:40:42;;;;;;;4.30;2.10;;;;;;;24.52;53.87;100376.19;4428789;32;33039;-79
2023/09/26 09:43:11;;;;;;;3.58;1.85;;;;;;;24.86;52.83;100366.16;4416722;32;33464;-80
2023/09/26 09:45:42;;;;;;;4.97;2.35;;;;;;;24.79;52.86;100365.72;4428119;32;34024;-79
2023/09/26 09:48:12;;;;;;;7.15;2.20;;;;;;;24.67;53.31;100362.00;4435609;32;33633;-79
2023/09/26 09:50:41;;;;;;;6.60;3.05;;;;;;;24.99;53.00;100353.00;4430337;32;33970;-79
2023/09/26 09:53:13;;;;;;;5.15;2.90;;;;;;;25.20;52.14;100353.47;4421342;32;33518;-79
2023/09/26 09:55:44;;;;;;;2.78;1.85;;;;;;;24.91;51.90;100354.34;4428530;32;34420;-79
2023/09/26 09:58:13;;;;;;;5.23;2.63;;;;;;;24.98;52.12;100348.63;4436029;32;35360;-80
2023/09/26 10:00:44;;;;;;;5.62;2.20;;;;;;;25.35;50.79;100341.87;4430747;32;34169;-80
2023/09/26 10:03:16;;;;;;;5.82;2.37;;;;;;;25.52;51.16;100344.28;4430773;32;34006;-80
2023/09/26 10:05:46;;;;;;;3.95;2.15;;;;;;;25.28;50.49;100340.56;4430561;32;34476;-79
2023/09/26 10:08:16;;;;;;;3.90;1.77;;;;;;;25.37;50.46;100339.97;4430676;32;33785;-80
2023/09/26 10:10:45;;;;;;;4.45;2.28;;;;;;;25.41;49.93;100335.31;4435776;32;32967;-79
2023/09/26 10:13:15;;;;;;;5.32;2.50;;;;;;;25.64;48.93;100328.50;4430075;32;33536;-79
2023/09/26 10:16:11;;;;;;;4.07;2.10;;;;;;;25.71;48.51;100330.66;4430193;32;34773;-79
2023/09/26 10:18:45;;;;;;;3.83;1.95;;;;;;;25.88;48.27;100323.41;4428536;32;34098;-79
2023/09/26 10:21:24;;;;;;;2.85;1.85;;;;;;;25.89;47.97;100325.94;4430185;32;32725;-80
2023/09/26 10:24:29;;;;;;;5.25;1.90;;;;;;;25.72;48.27;100312.88;4435396;32;33565;-79
2023/09/26 10:27:08;;;;;;;3.28;1.85;;;;;;;25.77;47.46;100318.75;4436528;32;34011;-79
2023/09/26 10:29:57;;;;;;;4.18;2.12;;;;;;;26.05;47.40;100322.25;4435755;32;34459;-79
2023/09/26 10:32:33;;;;;;;3.65;1.30;;;;;;;26.08;47.04;100319.38;4430778;32;33099;-79
2023/09/26 10:35:23;;;;;;;2.67;1.62;;;;;;;26.14;45.81;100317.16;4430812;32;34084;-78
2023/09/26 10:38:00;;;;;;;5.55;1.85;;;;;;;26.27;45.11;100306.53;4430175;32;33813;-79
2023/09/26 10:40:30;;;;;;;4.82;2.33;;;;;;;26.03;45.53;100310.88;4430683;32;34541;-80
2023/09/26 10:43:00;;;;;;;2.87;1.73;;;;;;;26.31;44.74;100296.53;4436462;32;33192;-81
2023/09/26 10:45:49;;;;;;;3.60;1.73;;;;;;;26.13;44.24;100302.16;4436128;32;33907;-79
2023/09/26 10:48:20;;;;;;;3.60;1.42;;;;;;;26.42;42.96;100303.78;4415867;32;33710;-79
2023/09/26 10:51:09;;;;;;;;;;;;;;;26.30;42.87;100308.13;4426120;32;33853;-79
2023/09/26 10:53:38;;;;;;;2.92;1.77;;;;;;;26.34;42.83;100299.00;4430619;32;33368;-79
2023/09/26 10:56:07;;;;;;;2.28;1.40;;;;;;;26.47;42.31;100293.66;4435413;32;33529;-80
2023/09/26 10:58:36;;;;;;;6.07;1.60;;;;;;;26.57;41.88;100297.41;4432891;32;33955;-79
2023/09/26 11:01:06;;;;;;;5.43;2.37;;;;;;;26.57;42.86;100286.75;4428609;32;33728;-78
2023/09/26 11:03:36;;;;;;;3.55;1.80;;;;;;;26.50;41.94;100290.78;4429369;32;33554;-79
2023/09/26 11:06:07;;;;;;;2.87;1.50;;;;;;;26.67;41.63;100292.28;4429428;32;34694;-81
2023/09/26 11:08:36;;;;;;;3.35;1.60;;;;;;;26.67;40.71;100284.28;4435406;32;33409;-79
2023/09/26 11:11:05;;;;;;;3.87;2.05;;;;;;;26.63;41.58;100291.66;4430263;32;34387;-79
2023/09/26 11:13:34;;;;;;;2.90;1.58;;;;;;;26.81;41.51;100281.50;4430241;32;34065;-79
2023/09/26 11:16:03;;;;;;;5.28;2.35;;;;;;;26.85;41.22;100279.50;4430546;32;33565;-78
2023/09/26 11:18:32;;;;;;;4.03;1.55;;;;;;;26.80;41.74;100280.66;4436060;32;34034;-81
2023/09/26 11:21:04;;;;;;;4.37;1.85;;;;;;;26.84;40.48;100275.94;4431773;32;34433;-79
2023/09/26 11:23:53;;;;;;;2.85;1.58;;;;;;;26.93;41.92;100277.09;4430509;32;33429;-81
2023/09/26 11:26:24;;;;;;;3.75;1.62;;;;;;;27.15;41.47;100268.41;4429004;32;33661;-80
2023/09/26 11:28:54;;;;;;;4.60;1.23;;;;;;;27.02;39.89;100274.63;4429952;32;34691;-79
2023/09/26 11:31:24;;;;;;;2.93;1.23;;;;;;;26.94;40.33;100273.47;4420049;32;33477;-79
2023/09/26 11:33:53;;;;;;;2.67;1.40;;;;;;;27.19;40.25;100262.78;4415188;32;33610;-80
2023/09/26 11:36:23;;;;;;;3.15;2.28;;;;;;;26.97;40.06;100258.13;4414735;32;33917;-80
2023/09/26 11:38:53;;;;;;;2.40;1.60;;;;;;;27.20;40.30;100256.47;4428701;32;33610;-80
2023/09/26 11:41:22;;;;;;;4.80;2.12;;;;;;;27.38;40.97;100264.94;4430673;32;33395;-80